Palo Alto, CA

5:04 AM PDT on April 25, 2015 (GMT -0700)
Midtown (Towle Place) | | Change Station
CLOSE
Current Station
Personal Weather Station
Location: Palo Alto, CA
Elevation: 16 ft
Nearby Weather Stations

Elev 16 ft 37.43 °N, 122.13 °W | Updated 23 seconds ago

Light Rain
Light Rain
56.2 °F
Feels Like 56.2 °F
N
1.0
Wind Variable Wind from WNW
Gusts 9.0 mph

Today
High -- | Low -- °F
--% Chance of Precip.
Yesterday
High -- | Low -- °F
Precip. -- in
6:20 AM 7:52 PM
Waxing Crescent, 45% visible
Pressure 29.92 in
Visibility 10.0 miles
Clouds Few 2200 ft
Scattered Clouds 3500 ft
Overcast 4500 ft
Dew Point 54 °F
Humidity 92%
Rainfall 0.25 in
Snow Depth Not available.
UV 0 out of 12
Pollen 8.30 out of 12
Air Quality Not available.
Flu Activity Sporadic
METAR KNUQ 251156Z AUTO 29007KT 10SM -RA FEW022 SCT035 OVC045 14/12 A2991 RMK AO2 SLP130 P0003 60028 70028 T01390122 10167 20128 56005 TSNO

More Conditions Fewer Conditions

Pressure 29.92 in
Visibility 10.0 miles
Clouds Few 2200 ft
Scattered Clouds 3500 ft
Overcast 4500 ft
Dew Point 54 °F
Humidity 92%
Rainfall 0.25 in
Snow Depth Not available.
UV 0 out of 12
Pollen 8.30 out of 12
Air Quality Not available.
Flu Activity Sporadic
METAR KNUQ 251156Z AUTO 29007KT 10SM -RA FEW022 SCT035 OVC045 14/12 A2991 RMK AO2 SLP130 P0003 60028 70028 T01390122 10167 20128 56005 TSNO

More Conditions Fewer Conditions

10-Day Weather Forecast

Almanac

Astronomy

Apr. 25, 2015 Rise Set
Actual Time
Civil Twilight
Nautical Twilight
Astronomical Twilight
Moon
Length of Visible Light
Length of Day
Tomorrow will be .
, % of the Moon is Illuminated

Today's Extremes

State Highs State Lows

Community

WunderPhotos

Upload Photos

1,816,643 photos uploaded!

WunderBlogs® & News

Nearby

Air Quality

  Air Quality AQ Index Pollutant
Not available.

Snow Depth

Station Depth Elevation

Earthquake Activity

City Distance Mag. Time & Date
Minimum magnitude displayed is 2.5.

Coastal Water Temperatures

Place Temperature

Stations

Nearby Weather Stations

Station Location Temp. Windchill Dew Point Humidity Wind Precip. Elev Updated Type